Time;durP1;ratioP1;P1;durP2;ratioP2;P2;SDS_P1;SDS_P2;PMS_P1;PMS_P2;Temp;Humidity;BMP_temperature;BMP_pressure;BME280_temperature;BME280_humidity;BME280_pressure;Samples;Min_cycle;Max_cycle;Signal;HPM_P1;HPM_P2
2022/07/08 00:02:05;;;;;;;5.35;1.75;;;14.70;99.90;;;;;;5067308;28;20041;-70
2022/07/08 00:04:30;;;;;;;8.23;1.85;;;14.70;99.90;;;;;;5065356;28;20081;-71
2022/07/08 00:06:56;;;;;;;6.68;2.03;;;14.70;99.90;;;;;;5069481;28;20144;-70
2022/07/08 00:09:21;;;;;;;8.20;1.55;;;14.50;99.90;;;;;;5067110;28;20040;-71
2022/07/08 00:11:47;;;;;;;4.93;1.48;;;14.70;99.90;;;;;;5065212;28;20098;-71
2022/07/08 00:14:13;;;;;;;7.45;1.70;;;14.60;99.90;;;;;;5068699;28;20182;-71
2022/07/08 00:16:40;;;;;;;6.00;1.30;;;14.60;99.90;;;;;;5066499;28;20044;-71
2022/07/08 00:19:14;;;;;;;11.43;1.98;;;14.60;99.90;;;;;;5068905;28;20094;-70
2022/07/08 00:21:44;;;;;;;8.68;2.20;;;14.50;99.90;;;;;;5067313;28;20113;-70
2022/07/08 00:24:11;;;;;;;8.32;2.08;;;14.50;99.90;;;;;;5067299;28;20500;-70
2022/07/08 00:26:37;;;;;;;6.05;1.95;;;14.50;99.90;;;;;;5065940;28;20084;-71
2022/07/08 00:29:03;;;;;;;8.07;1.88;;;14.50;99.90;;;;;;5072535;28;20118;-71
2022/07/08 00:31:29;;;;;;;7.00;1.73;;;14.50;99.90;;;;;;5071422;28;20177;-71
2022/07/08 00:33:54;;;;;;;7.22;1.48;;;14.50;99.90;;;;;;5071665;28;20431;-72
2022/07/08 00:36:20;;;;;;;5.93;1.70;;;14.40;99.90;;;;;;5070092;28;20465;-72
2022/07/08 00:38:45;;;;;;;8.02;1.63;;;14.60;99.90;;;;;;5070592;28;20459;-72
2022/07/08 00:41:11;;;;;;;7.68;1.95;;;14.30;99.90;;;;;;5067582;28;20102;-72
2022/07/08 00:43:41;;;;;;;6.25;1.60;;;14.40;99.90;;;;;;5070126;28;20072;-72
2022/07/08 00:46:07;;;;;;;10.07;1.90;;;14.30;99.90;;;;;;5065782;28;20519;-72
2022/07/08 00:48:34;;;;;;;6.53;1.75;;;14.40;99.90;;;;;;5065926;28;20084;-73
2022/07/08 00:51:02;;;;;;;9.65;1.88;;;14.00;99.90;;;;;;5072857;28;20036;-73
2022/07/08 00:53:29;;;;;;;6.50;1.92;;;14.10;99.90;;;;;;5070130;28;20080;-72
2022/07/08 00:55:56;;;;;;;7.43;1.83;;;14.00;99.90;;;;;;5067851;28;20095;-71
2022/07/08 00:58:22;;;;;;;8.77;2.00;;;13.90;99.90;;;;;;5072698;28;20083;-71
2022/07/08 01:00:49;;;;;;;9.15;2.30;;;13.90;99.90;;;;;;5069827;28;20056;-71
2022/07/08 01:03:15;;;;;;;8.30;1.75;;;13.80;99.90;;;;;;5070909;28;20044;-72
2022/07/08 01:05:40;;;;;;;8.73;1.92;;;13.80;99.90;;;;;;5072206;28;20048;-71
2022/07/08 01:08:06;;;;;;;11.13;2.08;;;13.70;99.90;;;;;;5071917;28;20048;-72
2022/07/08 01:10:32;;;;;;;5.78;1.77;;;13.70;99.90;;;;;;5070310;28;20127;-72
2022/07/08 01:12:58;;;;;;;6.53;2.05;;;13.70;99.90;;;;;;5072629;28;20052;-72
2022/07/08 01:15:25;;;;;;;8.13;2.20;;;13.60;99.90;;;;;;5071532;28;20488;-72
2022/07/08 01:17:50;;;;;;;10.85;2.85;;;13.60;99.90;;;;;;5071436;28;20063;-71
2022/07/08 01:20:16;;;;;;;7.15;1.80;;;13.50;99.90;;;;;;5070704;28;20459;-71
2022/07/08 01:22:43;;;;;;;9.45;2.30;;;13.50;99.90;;;;;;5063236;28;20041;-71
2022/07/08 01:25:09;;;;;;;7.32;2.00;;;13.50;99.90;;;;;;5070648;28;20047;-69
2022/07/08 01:27:36;;;;;;;11.48;2.20;;;13.40;99.90;;;;;;5067374;28;20051;-69
2022/07/08 01:30:03;;;;;;;6.50;2.10;;;13.40;99.90;;;;;;5071942;28;20045;-69
2022/07/08 01:32:36;;;;;;;7.55;2.10;;;13.40;99.90;;;;;;5071763;28;20147;-69
2022/07/08 01:35:02;;;;;;;9.13;2.08;;;13.40;99.90;;;;;;5069940;28;20051;-70
2022/07/08 01:37:28;;;;;;;8.02;1.88;;;13.30;99.90;;;;;;5069878;28;20043;-69
2022/07/08 01:39:54;;;;;;;7.30;2.22;;;13.30;99.90;;;;;;5071285;28;20127;-69
2022/07/08 01:42:19;;;;;;;5.68;1.98;;;13.20;99.90;;;;;;5074223;28;20033;-70
2022/07/08 01:44:45;;;;;;;7.97;2.15;;;13.30;99.90;;;;;;5070856;28;20040;-70
2022/07/08 01:47:10;;;;;;;8.07;1.92;;;13.10;99.90;;;;;;5069716;28;20068;-70
2022/07/08 01:49:36;;;;;;;8.43;2.03;;;13.10;99.90;;;;;;5087965;22;20124;-46
2022/07/08 01:52:04;;;;;;;7.97;2.13;;;13.10;99.90;;;;;;5063032;22;20053;-50
2022/07/08 01:54:30;;;;;;;7.72;2.30;;;13.00;99.90;;;;;;5052210;28;20041;-52
2022/07/08 01:57:13;;;;;;;9.65;2.17;;;13.00;99.90;;;;;;5050181;28;20048;-48
2022/07/08 01:59:39;;;;;;;7.97;2.28;;;13.00;99.90;;;;;;5049936;28;20041;-50
2022/07/08 02:02:05;;;;;;;10.35;2.58;;;12.90;99.90;;;;;;5050563;28;20044;-50
2022/07/08 02:04:30;;;;;;;5.57;1.70;;;12.90;99.90;;;;;;5051401;28;20044;-47
2022/07/08 02:06:56;;;;;;;8.15;2.45;;;12.80;99.90;;;;;;5050503;28;20045;-50
2022/07/08 02:09:22;;;;;;;7.28;2.20;;;12.80;99.90;;;;;;5051348;28;20112;-51
2022/07/08 02:14:32;;;;;;;6.15;1.80;;;12.70;99.90;;;;;;5051477;28;20056;-52
2022/07/08 02:16:58;;;;;;;7.55;1.88;;;12.70;99.90;;;;;;5050512;28;20040;-48
2022/07/08 02:19:24;;;;;;;7.53;2.03;;;12.70;99.90;;;;;;5049624;28;20037;-49
2022/07/08 02:21:50;;;;;;;8.95;2.10;;;12.70;99.90;;;;;;5049552;28;20402;-49
2022/07/08 02:24:15;;;;;;;9.02;2.00;;;12.70;99.90;;;;;;5050122;28;20041;-53
2022/07/08 02:26:41;;;;;;;7.40;1.88;;;12.70;99.90;;;;;;5050836;28;20044;-49
2022/07/08 02:29:06;;;;;;;8.55;2.20;;;12.70;99.90;;;;;;5051332;28;20465;-53
2022/07/08 02:31:32;;;;;;;7.85;2.03;;;12.60;99.90;;;;;;5046420;28;20041;-50
2022/07/08 02:33:58;;;;;;;10.10;2.20;;;12.60;99.90;;;;;;5048637;28;20045;-53
2022/07/08 02:36:23;;;;;;;7.22;1.83;;;12.60;99.90;;;;;;5047033;28;20370;-53
2022/07/08 02:38:49;;;;;;;7.53;1.65;;;12.60;99.90;;;;;;5045648;28;20040;-52
2022/07/08 02:41:14;;;;;;;8.82;2.17;;;12.60;99.90;;;;;;5047825;28;20071;-52
2022/07/08 02:43:40;;;;;;;6.18;1.75;;;12.60;99.90;;;;;;5050948;28;20052;-53
2022/07/08 02:46:06;;;;;;;7.70;1.80;;;12.50;99.90;;;;;;5047056;28;20045;-53
2022/07/08 02:48:31;;;;;;;7.85;2.00;;;12.50;99.90;;;;;;5049067;28;20048;-48
2022/07/08 02:50:57;;;;;;;8.95;1.95;;;12.50;99.90;;;;;;5044476;28;20057;-52
2022/07/08 02:53:23;;;;;;;7.35;2.15;;;12.40;99.90;;;;;;5048078;28;20725;-50
2022/07/08 02:55:49;;;;;;;7.05;2.00;;;12.40;99.90;;;;;;5052311;28;20098;-50
2022/07/08 02:58:14;;;;;;;7.30;2.10;;;12.40;99.90;;;;;;5048674;28;20770;-52
2022/07/08 03:00:40;;;;;;;8.95;2.17;;;12.40;99.90;;;;;;5046907;28;20048;-50
2022/07/08 03:03:05;;;;;;;7.32;2.22;;;12.40;99.90;;;;;;5048378;28;20128;-52
2022/07/08 03:05:31;;;;;;;9.63;2.40;;;12.40;99.90;;;;;;5049863;28;20037;-51
2022/07/08 03:07:57;;;;;;;6.60;2.22;;;12.40;99.90;;;;;;5046857;28;20037;-52
2022/07/08 03:10:22;;;;;;;9.43;2.25;;;12.30;99.90;;;;;;5047281;28;20439;-50
2022/07/08 03:12:48;;;;;;;9.05;2.33;;;12.30;99.90;;;;;;5050276;28;20033;-48
2022/07/08 03:15:14;;;;;;;12.75;2.53;;;12.30;99.90;;;;;;5050653;28;20079;-50
2022/07/08 03:17:39;;;;;;;9.25;2.80;;;12.30;99.90;;;;;;5048311;28;20489;-49
2022/07/08 03:20:05;;;;;;;5.13;2.05;;;12.30;99.90;;;;;;5050517;28;20029;-50
2022/07/08 03:22:32;;;;;;;6.53;2.08;;;12.30;99.90;;;;;;5048642;28;20047;-51
2022/07/08 03:24:57;;;;;;;8.07;2.35;;;12.30;99.90;;;;;;5046458;28;20044;-50
2022/07/08 03:27:23;;;;;;;5.43;1.80;;;12.30;99.90;;;;;;5048568;28;20041;-50
2022/07/08 03:29:48;;;;;;;6.10;2.03;;;12.20;99.90;;;;;;5048056;28;20047;-48
2022/07/08 03:32:14;;;;;;;7.72;2.40;;;12.20;99.90;;;;;;5047454;28;20124;-51
2022/07/08 03:34:39;;;;;;;5.45;1.92;;;12.20;99.90;;;;;;5048812;28;20067;-51
2022/07/08 03:37:05;;;;;;;8.50;2.10;;;12.20;99.90;;;;;;5046469;28;20033;-48
2022/07/08 03:39:30;;;;;;;12.38;2.38;;;12.20;99.90;;;;;;5049445;28;20406;-48
2022/07/08 03:41:56;;;;;;;6.63;1.80;;;12.20;99.90;;;;;;5049935;28;20033;-49
2022/07/08 03:44:21;;;;;;;9.20;1.85;;;12.20;99.90;;;;;;5042864;28;20043;-48
2022/07/08 03:46:47;;;;;;;8.52;2.45;;;12.20;99.90;;;;;;5049540;28;20045;-50
2022/07/08 03:49:12;;;;;;;7.43;2.45;;;12.20;99.90;;;;;;5048235;28;20036;-48
2022/07/08 03:51:38;;;;;;;8.55;2.47;;;12.20;99.90;;;;;;5046345;28;20084;-49
2022/07/08 03:54:03;;;;;;;10.45;2.42;;;12.20;99.90;;;;;;5049503;28;20087;-51
2022/07/08 03:56:29;;;;;;;9.52;2.25;;;12.20;99.90;;;;;;5046891;28;20240;-52
2022/07/08 03:58:55;;;;;;;10.07;2.20;;;12.20;99.90;;;;;;5047813;28;20063;-49
2022/07/08 04:01:20;;;;;;;8.18;2.75;;;12.20;99.90;;;;;;5049171;28;20041;-48
2022/07/08 04:03:46;;;;;;;6.03;1.95;;;12.20;99.90;;;;;;5048619;28;20044;-49
2022/07/08 04:06:11;;;;;;;7.82;2.53;;;12.30;99.90;;;;;;5048106;28;20045;-48
2022/07/08 04:08:37;;;;;;;6.82;2.17;;;12.30;99.90;;;;;;5046239;28;20040;-49
2022/07/08 04:11:02;;;;;;;9.52;2.25;;;12.30;99.90;;;;;;5043347;28;20090;-49
2022/07/08 04:13:28;;;;;;;6.90;2.20;;;12.30;99.90;;;;;;5048606;28;20067;-48
2022/07/08 04:15:57;;;;;;;6.78;2.17;;;12.40;99.90;;;;;;5047808;28;20068;-51
2022/07/08 04:18:22;;;;;;;8.32;2.45;;;12.40;99.90;;;;;;5047997;28;20117;-48
2022/07/08 04:20:48;;;;;;;8.13;1.95;;;12.50;99.90;;;;;;5041208;28;20049;-49
2022/07/08 04:23:13;;;;;;;10.77;2.50;;;12.60;99.90;;;;;;5047372;28;20391;-49
2022/07/08 04:25:39;;;;;;;8.90;2.35;;;12.70;99.90;;;;;;5048161;28;20041;-50
2022/07/08 04:28:04;;;;;;;10.75;2.17;;;12.90;99.90;;;;;;5048330;28;20461;-49
2022/07/08 04:30:30;;;;;;;6.00;2.05;;;13.10;99.90;;;;;;5045147;28;20111;-51
2022/07/08 04:32:56;;;;;;;8.15;1.98;;;13.10;99.90;;;;;;5046088;28;20036;-51
2022/07/08 04:35:21;;;;;;;5.18;1.63;;;13.30;99.90;;;;;;5048163;28;20037;-52
2022/07/08 04:37:50;;;;;;;5.60;1.90;;;13.60;99.90;;;;;;5047512;28;20091;-49
2022/07/08 04:40:16;;;;;;;9.48;2.10;;;;;;;;;;5047192;28;20139;-47
2022/07/08 04:42:42;;;;;;;8.02;2.10;;;;;;;;;;5045499;28;20041;-50
2022/07/08 04:45:08;;;;;;;6.80;2.33;;;15.00;99.90;;;;;;5047465;28;20052;-51
2022/07/08 04:47:34;;;;;;;9.25;1.80;;;14.90;99.90;;;;;;5040322;28;20037;-49
2022/07/08 04:49:59;;;;;;;7.00;2.10;;;14.80;99.90;;;;;;5046237;28;20041;-51
2022/07/08 04:52:25;;;;;;;5.82;1.90;;;14.70;99.90;;;;;;5048524;28;20057;-49
2022/07/08 04:54:51;;;;;;;6.72;1.85;;;14.70;99.90;;;;;;5046593;28;20049;-51
2022/07/08 04:57:16;;;;;;;8.25;2.10;;;14.70;99.90;;;;;;5044501;28;20094;-49
2022/07/08 04:59:42;;;;;;;10.23;2.42;;;15.10;99.90;;;;;;5046898;28;20110;-49
2022/07/08 05:02:08;;;;;;;8.55;2.08;;;15.10;99.90;;;;;;5048411;28;20048;-49
2022/07/08 05:04:34;;;;;;;10.30;2.42;;;;;;;;;;5047685;28;20124;-50
2022/07/08 05:06:59;;;;;;;8.23;2.25;;;16.40;99.90;;;;;;5044815;28;20045;-53
2022/07/08 05:09:25;;;;;;;7.65;1.60;;;17.80;99.90;;;;;;5048048;28;20047;-52
2022/07/08 05:11:50;;;;;;;6.70;2.13;;;18.80;99.90;;;;;;5049459;28;20033;-51
2022/07/08 05:14:16;;;;;;;6.88;2.05;;;19.70;99.90;;;;;;5051887;28;20037;-53
2022/07/08 05:16:43;;;;;;;6.38;1.83;;;20.60;99.90;;;;;;5050699;28;20033;-53
2022/07/08 05:19:09;;;;;;;5.20;1.60;;;21.20;99.90;;;;;;5049957;28;20077;-52
2022/07/08 05:21:38;;;;;;;6.28;1.60;;;22.60;99.90;;;;;;5050155;28;20441;-54
2022/07/08 05:24:07;;;;;;;5.65;1.60;;;22.60;99.90;;;;;;5047039;28;20398;-53
2022/07/08 05:26:34;;;;;;;8.02;1.50;;;22.90;99.90;;;;;;5050673;28;20073;-54
2022/07/08 05:29:00;;;;;;;7.30;1.65;;;22.70;99.90;;;;;;5052323;28;20083;-55
2022/07/08 05:31:26;;;;;;;7.75;1.75;;;22.70;99.90;;;;;;5051185;28;20502;-55
2022/07/08 05:33:52;;;;;;;6.97;1.75;;;22.60;99.90;;;;;;5050150;28;20045;-55
2022/07/08 05:36:17;;;;;;;8.52;1.60;;;22.40;99.90;;;;;;5051643;28;20044;-54
2022/07/08 05:38:43;;;;;;;7.30;1.70;;;21.90;99.90;;;;;;5051722;28;20128;-54
2022/07/08 05:41:08;;;;;;;9.30;2.13;;;22.30;99.90;;;;;;5049331;28;20693;-55
2022/07/08 05:43:34;;;;;;;7.78;1.90;;;22.40;99.90;;;;;;5043702;28;20087;-55
2022/07/08 05:46:00;;;;;;;6.47;1.52;;;22.70;99.90;;;;;;5044790;28;20399;-54
2022/07/08 05:48:28;;;;;;;4.00;1.20;;;22.40;99.90;;;;;;5045420;28;20250;-54
2022/07/08 05:50:53;;;;;;;7.40;1.73;;;21.90;99.90;;;;;;5043264;28;20078;-54
2022/07/08 05:53:19;;;;;;;5.15;1.55;;;21.70;99.90;;;;;;5044994;28;20124;-54
2022/07/08 05:55:44;;;;;;;8.57;1.50;;;21.80;99.90;;;;;;5045922;28;20072;-54
2022/07/08 05:58:10;;;;;;;10.43;1.85;;;21.60;99.90;;;;;;5045115;28;20040;-54
2022/07/08 06:00:36;;;;;;;7.25;2.03;;;21.60;99.90;;;;;;5043790;28;20483;-53
2022/07/08 06:03:05;;;;;;;7.38;1.83;;;21.90;99.90;;;;;;5043380;28;20045;-54
2022/07/08 06:05:31;;;;;;;8.02;1.50;;;21.80;99.90;;;;;;5044800;28;20056;-53
2022/07/08 06:07:57;;;;;;;6.40;1.48;;;21.30;99.90;;;;;;5042318;28;20048;-53
2022/07/08 06:10:22;;;;;;;6.57;1.75;;;21.00;99.90;;;;;;5044411;28;20040;-53
2022/07/08 06:12:49;;;;;;;6.00;2.08;;;20.80;99.90;;;;;;5042377;28;20387;-54
2022/07/08 06:15:14;;;;;;;8.70;1.70;;;20.50;99.90;;;;;;5042715;28;20049;-54
2022/07/08 06:17:40;;;;;;;6.40;1.90;;;20.50;99.90;;;;;;5041656;28;20048;-54
2022/07/08 06:20:07;;;;;;;8.25;1.75;;;20.30;99.90;;;;;;5042414;28;20037;-54
2022/07/08 06:22:33;;;;;;;7.93;2.20;;;20.20;99.90;;;;;;5049464;28;20411;-53
2022/07/08 06:24:59;;;;;;;6.53;1.70;;;20.20;99.90;;;;;;5043764;28;20036;-55
2022/07/08 06:27:25;;;;;;;10.50;2.08;;;20.20;99.90;;;;;;5045829;28;20041;-53
2022/07/08 06:29:51;;;;;;;8.40;1.77;;;20.00;99.90;;;;;;5041983;28;20044;-55
2022/07/08 06:32:17;;;;;;;8.02;1.88;;;20.30;99.90;;;;;;5043714;28;20029;-55
2022/07/08 06:34:44;;;;;;;5.95;1.45;;;21.20;99.90;;;;;;5042856;28;20094;-54
2022/07/08 06:37:10;;;;;;;8.77;1.92;;;21.20;99.90;;;;;;5041452;28;20044;-53
2022/07/08 06:39:36;;;;;;;9.43;1.92;;;21.20;99.90;;;;;;5040844;28;20740;-55
2022/07/08 06:42:02;;;;;;;6.03;1.52;;;21.20;99.90;;;;;;5044992;28;20048;-53
2022/07/08 06:44:27;;;;;;;7.82;1.90;;;21.80;99.90;;;;;;5046184;28;20041;-55
2022/07/08 06:46:53;;;;;;;8.48;1.63;;;22.10;99.90;;;;;;5046374;28;20071;-50
2022/07/08 06:49:18;;;;;;;7.80;2.03;;;22.90;99.90;;;;;;5037574;28;20463;-56
2022/07/08 06:51:44;;;;;;;7.63;1.80;;;23.10;99.90;;;;;;5041893;28;20485;-53
2022/07/08 06:56:53;;;;;;;7.00;1.60;;;22.60;99.90;;;;;;5044174;28;20079;-55
2022/07/08 06:59:19;;;;;;;8.60;2.15;;;22.30;99.90;;;;;;5041858;28;20037;-55
2022/07/08 07:01:45;;;;;;;8.70;1.85;;;21.90;99.90;;;;;;5045993;28;20048;-53
2022/07/08 07:04:10;;;;;;;5.72;1.48;;;21.30;99.90;;;;;;5041755;28;20060;-54
2022/07/08 07:06:36;;;;;;;6.43;1.60;;;20.80;99.90;;;;;;5042589;28;20048;-54
2022/07/08 07:09:02;;;;;;;5.20;1.60;;;20.80;99.90;;;;;;5044195;28;21354;-54
2022/07/08 07:11:27;;;;;;;8.60;1.90;;;20.50;99.90;;;;;;5050048;28;20120;-54
2022/07/08 07:13:53;;;;;;;9.05;1.70;;;20.10;99.90;;;;;;5040422;28;20059;-48
2022/07/08 07:16:19;;;;;;;7.70;2.10;;;19.90;99.90;;;;;;5046935;28;20118;-49
2022/07/08 07:18:44;;;;;;;9.43;1.85;;;19.80;99.90;;;;;;5043470;28;20171;-50
2022/07/08 07:21:10;;;;;;;7.93;1.65;;;19.60;99.90;;;;;;5041556;28;20051;-50
2022/07/08 07:23:35;;;;;;;7.35;1.65;;;19.60;99.90;;;;;;5040058;28;20041;-53
2022/07/08 07:26:01;;;;;;;9.88;1.50;;;19.50;99.90;;;;;;5040994;28;20043;-54
2022/07/08 07:28:27;;;;;;;9.13;1.67;;;19.50;99.90;;;;;;5039287;28;20483;-55
2022/07/08 07:30:52;;;;;;;7.18;1.75;;;19.40;99.90;;;;;;5039090;28;20063;-53
2022/07/08 07:33:18;;;;;;;10.05;1.92;;;19.40;99.90;;;;;;5040170;28;20037;-53
2022/07/08 07:35:43;;;;;;;5.68;1.70;;;19.50;99.90;;;;;;5042180;28;20099;-54
2022/07/08 07:38:09;;;;;;;10.35;2.05;;;19.50;99.90;;;;;;5042427;28;20351;-52
2022/07/08 07:40:34;;;;;;;9.77;2.60;;;19.40;99.90;;;;;;5042815;28;20052;-55
2022/07/08 07:43:00;;;;;;;10.55;2.03;;;19.40;99.90;;;;;;5040402;28;20091;-52
2022/07/08 07:45:26;;;;;;;6.72;2.00;;;19.40;99.90;;;;;;5042262;28;20535;-51
2022/07/08 07:47:51;;;;;;;8.65;1.98;;;19.40;99.90;;;;;;5056471;28;20481;-50
2022/07/08 07:50:17;;;;;;;7.70;1.63;;;19.30;99.90;;;;;;5040097;28;20478;-49
2022/07/08 07:52:42;;;;;;;7.63;1.75;;;19.40;99.90;;;;;;5044352;28;20834;-52
2022/07/08 07:55:09;;;;;;;6.25;1.80;;;19.50;99.90;;;;;;5040683;28;20111;-54
2022/07/08 07:57:35;;;;;;;9.50;2.30;;;19.40;99.90;;;;;;5042884;28;20051;-54
2022/07/08 08:00:01;;;;;;;7.07;2.15;;;19.40;99.90;;;;;;5041389;28;20029;-52
2022/07/08 08:02:27;;;;;;;7.20;1.98;;;19.50;99.90;;;;;;5039123;28;20041;-53
2022/07/08 08:04:52;;;;;;;6.78;1.90;;;19.50;99.90;;;;;;5045490;28;20087;-52
2022/07/08 08:07:18;;;;;;;6.30;1.60;;;19.60;99.90;;;;;;5038436;28;20044;-52
2022/07/08 08:09:43;;;;;;;7.28;1.88;;;19.60;99.90;;;;;;5046032;28;20037;-50
2022/07/08 08:12:09;;;;;;;5.78;1.63;;;19.60;99.90;;;;;;5035525;28;20545;-54
2022/07/08 08:14:35;;;;;;;6.65;1.90;;;19.80;99.90;;;;;;5030945;28;20084;-50
2022/07/08 08:17:00;;;;;;;8.15;2.28;;;19.90;99.90;;;;;;5041077;28;20170;-54
2022/07/08 08:19:26;;;;;;;9.48;1.77;;;20.00;99.90;;;;;;5038507;28;20080;-54
2022/07/08 08:21:51;;;;;;;4.75;1.40;;;20.20;99.90;;;;;;5036898;28;20039;-49
2022/07/08 08:24:17;;;;;;;12.40;2.58;;;20.30;99.90;;;;;;5036786;28;20049;-52
2022/07/08 08:26:43;;;;;;;8.63;1.70;;;20.40;99.90;;;;;;5038913;28;20060;-52
2022/07/08 08:29:09;;;;;;;9.77;1.98;;;20.30;99.90;;;;;;5038588;28;20098;-53
2022/07/08 08:31:34;;;;;;;9.90;2.17;;;20.20;99.90;;;;;;5043933;28;20033;-53
2022/07/08 08:34:00;;;;;;;9.48;1.80;;;19.90;99.90;;;;;;5036511;28;20506;-50
2022/07/08 08:36:26;;;;;;;7.28;1.80;;;20.00;99.90;;;;;;5039508;28;20033;-50
2022/07/08 08:38:52;;;;;;;7.20;1.58;;;20.00;99.90;;;;;;5041582;28;20124;-53
2022/07/08 08:41:18;;;;;;;8.88;1.80;;;20.00;99.90;;;;;;5045081;28;20198;-52
2022/07/08 08:43:44;;;;;;;5.00;1.55;;;20.10;99.90;;;;;;5040767;28;20044;-54
2022/07/08 08:46:11;;;;;;;9.25;2.17;;;20.20;99.90;;;;;;5042536;28;20033;-51
2022/07/08 08:48:39;;;;;;;8.20;2.00;;;20.30;99.90;;;;;;5043800;28;20112;-54
2022/07/08 08:51:08;;;;;;;9.20;2.13;;;20.50;99.90;;;;;;5047882;28;20052;-54
2022/07/08 08:53:42;;;;;;;7.30;1.98;;;20.60;99.90;;;;;;5042861;28;20029;-54
2022/07/08 08:56:10;;;;;;;5.80;1.73;;;20.70;99.90;;;;;;5048886;28;20060;-55
2022/07/08 08:58:38;;;;;;;7.32;2.10;;;19.60;99.90;;;;;;5050692;28;20052;-51
2022/07/08 09:01:08;;;;;;;6.30;1.80;;;20.50;99.90;;;;;;5046454;28;20086;-53
2022/07/08 09:03:35;;;;;;;6.30;2.13;;;20.40;99.90;;;;;;5045729;28;20048;-55
2022/07/08 09:06:01;;;;;;;8.55;1.95;;;20.60;99.90;;;;;;5043720;28;20057;-55
2022/07/08 09:08:27;;;;;;;7.90;1.80;;;20.70;99.90;;;;;;5048424;28;20041;-55
2022/07/08 09:10:52;;;;;;;7.43;1.70;;;20.90;99.90;;;;;;5048815;28;20340;-51
2022/07/08 09:13:21;;;;;;;7.40;2.08;;;21.30;99.90;;;;;;5046087;28;20118;-54
2022/07/08 09:15:51;;;;;;;6.95;2.00;;;21.40;99.90;;;;;;5047623;28;20052;-55
2022/07/08 09:18:21;;;;;;;5.28;1.80;;;21.70;99.90;;;;;;5048880;28;20391;-56
2022/07/08 09:20:48;;;;;;;5.82;1.35;;;22.00;99.90;;;;;;5049736;28;20445;-56
2022/07/08 09:23:15;;;;;;;;;;;22.30;99.90;;;;;;5050489;28;20086;-56
2022/07/08 09:25:41;;;;;;;8.07;1.60;;;22.40;99.90;;;;;;5045578;28;19924;-56
2022/07/08 09:28:07;;;;;;;5.75;1.85;;;22.60;99.90;;;;;;5046256;28;20131;-56
2022/07/08 09:30:33;;;;;;;5.43;1.88;;;22.80;99.90;;;;;;5045494;28;20783;-56
2022/07/08 09:33:01;;;;;;;7.80;2.25;;;22.80;99.90;;;;;;5045719;28;20029;-54
2022/07/08 09:35:40;;;;;;;7.70;1.80;;;23.00;99.90;;;;;;5044446;28;20059;-56
2022/07/08 09:38:07;;;;;;;4.22;1.50;;;23.00;99.90;;;;;;5045309;28;20117;-56
2022/07/08 09:40:33;;;;;;;5.15;1.70;;;22.90;99.90;;;;;;5042157;28;20103;-55
2022/07/08 09:43:17;;;;;;;5.82;1.85;;;22.90;99.90;;;;;;5045142;28;20479;-55
2022/07/08 09:45:42;;;;;;;3.30;1.40;;;22.90;99.90;;;;;;5043643;28;20132;-56
2022/07/08 09:48:09;;;;;;;4.20;1.80;;;22.80;99.90;;;;;;5043693;28;20877;-57
2022/07/08 09:50:46;;;;;;;6.47;1.60;;;22.40;99.90;;;;;;5042661;28;20052;-56
2022/07/08 09:53:13;;;;;;;;;;;22.00;99.90;;;;;;5045134;28;20561;-56
2022/07/08 09:55:40;;;;;;;4.33;1.60;;;21.80;99.90;;;;;;5044175;28;20381;-55
2022/07/08 09:58:06;;;;;;;;;;;21.80;99.90;;;;;;5043135;28;20105;-56
2022/07/08 10:00:33;;;;;;;6.50;1.75;;;21.80;99.90;;;;;;5043228;28;20740;-56
2022/07/08 10:03:02;;;;;;;4.68;1.77;;;21.80;99.90;;;;;;5043582;28;20041;-56
2022/07/08 10:05:28;;;;;;;5.32;1.65;;;21.80;99.90;;;;;;5043816;28;20041;-56
2022/07/08 10:07:54;;;;;;;5.65;1.80;;;21.80;99.90;;;;;;5045067;28;20060;-55
2022/07/08 10:10:20;;;;;;;6.53;1.65;;;21.80;99.90;;;;;;5040942;28;20081;-55
2022/07/08 10:12:46;;;;;;;6.55;1.85;;;21.90;99.90;;;;;;5045865;28;20051;-55
2022/07/08 10:15:13;;;;;;;10.55;2.28;;;21.80;99.90;;;;;;5044596;28;20033;-56
2022/07/08 10:17:43;;;;;;;7.43;2.30;;;21.90;99.90;;;;;;5044838;28;20087;-56
2022/07/08 10:20:15;;;;;;;8.35;2.08;;;22.10;99.90;;;;;;5041761;28;20153;-56
2022/07/08 10:22:43;;;;;;;5.60;1.80;;;22.20;99.90;;;;;;5044616;28;20463;-56
2022/07/08 10:25:09;;;;;;;6.68;1.73;;;22.00;99.90;;;;;;5043130;28;20059;-54
2022/07/08 10:27:36;;;;;;;6.57;1.83;;;22.20;99.90;;;;;;5045536;28;20033;-56
2022/07/08 10:30:18;;;;;;;6.82;1.77;;;22.40;99.90;;;;;;5043178;28;20072;-55
2022/07/08 10:32:48;;;;;;;4.40;1.52;;;22.40;99.90;;;;;;5043912;28;20048;-56
2022/07/08 10:35:18;;;;;;;6.13;2.00;;;22.40;99.90;;;;;;5042468;28;20029;-55
2022/07/08 10:37:55;;;;;;;6.03;1.77;;;22.50;99.90;;;;;;5045627;28;20044;-57
2022/07/08 10:40:49;;;;;;;5.47;1.60;;;22.50;99.90;;;;;;5044909;28;20184;-53
2022/07/08 10:43:23;;;;;;;6.03;1.50;;;22.50;99.90;;;;;;5047155;28;20041;-55
2022/07/08 10:46:18;;;;;;;5.93;1.98;;;22.50;99.90;;;;;;5047524;28;20041;-56
2022/07/08 10:48:47;;;;;;;5.80;1.98;;;22.50;99.90;;;;;;5035261;28;20061;-54
2022/07/08 10:51:19;;;;;;;6.65;1.90;;;22.50;99.90;;;;;;5038677;28;20053;-56
2022/07/08 10:53:52;;;;;;;6.32;1.88;;;22.50;99.90;;;;;;5043931;28;20095;-56
2022/07/08 10:56:49;;;;;;;6.68;2.10;;;22.60;99.90;;;;;;5041342;28;20041;-56
2022/07/08 10:59:18;;;;;;;6.85;2.08;;;22.80;99.90;;;;;;5044938;28;20070;-55
2022/07/08 11:02:23;;;;;;;5.18;1.80;;;22.50;99.90;;;;;;5043162;28;20359;-57
2022/07/08 11:04:53;;;;;;;7.07;1.90;;;22.70;99.90;;;;;;5002124;28;20551;-56
2022/07/08 11:07:26;;;;;;;3.97;1.58;;;22.80;99.90;;;;;;5000098;28;20183;-56
2022/07/08 11:09:55;;;;;;;5.32;1.75;;;23.00;99.90;;;;;;5001389;28;20046;-56
2022/07/08 11:12:30;;;;;;;5.57;1.63;;;23.30;99.90;;;;;;4995498;28;20095;-57
2022/07/08 11:14:57;;;;;;;5.97;1.80;;;23.50;99.90;;;;;;5001332;28;20491;-56
2022/07/08 11:17:31;;;;;;;6.13;2.03;;;23.50;99.90;;;;;;4998075;28;20389;-56
2022/07/08 11:19:59;;;;;;;9.80;2.10;;;23.50;99.90;;;;;;4997151;28;20192;-55
2022/07/08 11:22:26;;;;;;;4.68;1.45;;;23.70;99.90;;;;;;4996167;28;20068;-56
2022/07/08 11:24:54;;;;;;;6.60;1.73;;;23.80;99.90;;;;;;4998593;28;20034;-56
2022/07/08 11:27:26;;;;;;;;;;;23.60;99.90;;;;;;4996653;28;20045;-57
2022/07/08 11:29:52;;;;;;;6.43;1.80;;;23.60;99.90;;;;;;4997089;28;20438;-55
2022/07/08 11:32:19;;;;;;;5.17;1.87;;;23.60;99.90;;;;;;4997232;28;20040;-55
2022/07/08 11:34:46;;;;;;;6.55;2.10;;;23.70;99.90;;;;;;5006359;28;20303;-56
2022/07/08 11:37:11;;;;;;;6.70;1.90;;;23.80;99.90;;;;;;5042057;28;20045;-56
2022/07/08 11:39:37;;;;;;;4.40;1.60;;;23.60;99.90;;;;;;5044050;28;20043;-56
2022/07/08 11:42:03;;;;;;;8.15;2.42;;;23.20;99.90;;;;;;5043475;28;20356;-56
2022/07/08 11:44:29;;;;;;;6.07;1.90;;;23.10;99.90;;;;;;5043392;28;20041;-57
2022/07/08 11:46:55;;;;;;;8.50;2.08;;;23.00;99.90;;;;;;5043642;28;20478;-57
2022/07/08 11:49:22;;;;;;;5.93;1.83;;;23.40;99.90;;;;;;5041845;28;20045;-56
2022/07/08 11:51:49;;;;;;;9.38;2.22;;;23.70;99.90;;;;;;5040107;28;20052;-56
2022/07/08 11:54:16;;;;;;;7.25;2.15;;;23.80;99.90;;;;;;5043601;28;20502;-56
2022/07/08 11:56:42;;;;;;;4.63;1.83;;;24.20;99.90;;;;;;5042290;28;20510;-56
2022/07/08 11:59:08;;;;;;;7.53;1.80;;;24.70;99.90;;;;;;5041643;28;20139;-56
2022/07/08 12:01:35;;;;;;;4.68;1.80;;;24.70;99.90;;;;;;5040192;28;20116;-57
2022/07/08 12:04:07;;;;;;;5.72;1.98;;;24.50;99.90;;;;;;5042412;28;20044;-55
2022/07/08 12:06:33;;;;;;;6.95;2.15;;;24.50;99.90;;;;;;5041293;28;20463;-55
2022/07/08 12:09:08;;;;;;;7.22;2.22;;;24.50;99.90;;;;;;5041440;28;20033;-55
2022/07/08 12:11:40;;;;;;;11.20;2.35;;;24.50;99.90;;;;;;5042238;28;20051;-56
2022/07/08 12:14:08;;;;;;;5.07;2.10;;;24.60;99.90;;;;;;5043109;28;20127;-53
2022/07/08 12:16:43;;;;;;;;;;;24.60;99.90;;;;;;5042338;28;20045;-55
2022/07/08 12:19:24;;;;;;;4.88;2.00;;;24.50;99.90;;;;;;5041216;28;19975;-55
2022/07/08 12:21:50;;;;;;;6.43;2.08;;;24.20;99.90;;;;;;5045322;28;20037;-56
2022/07/08 12:24:21;;;;;;;7.30;2.28;;;24.00;99.90;;;;;;5046014;28;20056;-55
2022/07/08 12:26:55;;;;;;;7.03;2.25;;;24.00;99.90;;;;;;5045539;28;20071;-55
2022/07/08 12:29:21;;;;;;;8.15;2.28;;;24.00;99.90;;;;;;5044103;28;20052;-55
2022/07/08 12:31:47;;;;;;;6.70;2.00;;;23.80;99.90;;;;;;5044090;28;20040;-56
2022/07/08 12:34:20;;;;;;;6.43;2.15;;;23.60;99.90;;;;;;5046473;28;20079;-56
2022/07/08 12:36:47;;;;;;;7.85;1.90;;;23.50;99.90;;;;;;5044726;28;20116;-57
2022/07/08 12:39:12;;;;;;;4.95;2.00;;;24.00;99.90;;;;;;5045554;28;20500;-55
2022/07/08 12:41:38;;;;;;;5.57;1.70;;;24.20;99.90;;;;;;5045588;28;20124;-56
2022/07/08 12:44:30;;;;;;;4.10;1.90;;;24.50;99.90;;;;;;5045927;28;20045;-56
2022/07/08 12:46:56;;;;;;;4.60;2.20;;;24.40;99.90;;;;;;5046859;28;20041;-55
2022/07/08 12:49:29;;;;;;;5.72;2.10;;;24.30;99.90;;;;;;5046045;28;20140;-56
2022/07/08 12:51:56;;;;;;;3.85;1.98;;;24.40;99.90;;;;;;5045808;28;20380;-54
2022/07/08 12:54:23;;;;;;;6.87;2.03;;;24.60;99.90;;;;;;5045263;28;20528;-54